Citadel — PBOK — position and weather

sailwx.info

Track history (hours):
 
Tides and Currents Weather Stations Pressure Air Temp Water Temp Dewpoint Dewpoint Depression Visibility Wind Speed Wind Dir Waves Ship Positions

Citadel

Last reported at 2015-May-22 03:33 UTC. Time now 2015-May-23 01:10 UTC.
Position N 50°37' W 005°27'.

Length 111 m; draft 6.3 m.

Type: Ship. MMSI: 245977000.

Date/timePositionNaut miles runAvg speedWind from/ knotsBaromVisibWave heightAir tempDewpointWater temp
2015-May-22 03:33N 50°37' W 005°27'9713.5
2015-May-21 20:22N 51°23' W 003°12'910.9
2015-May-21 19:33N 51°26' W 002°59'10 9.9
2015-May-21 18:34N 51°30' W 002°44'1 1.3
2015-May-21 17:33N 51°31' W 002°42'0 0.0
2015-May-21 16:33N 51°31' W 002°42'0 0.0
2015-May-21 15:33N 51°31' W 002°42'0 0.0
2015-May-21 14:33N 51°31' W 002°42'0 0.0
2015-May-21 13:33N 51°31' W 002°42'0 0.0
2015-May-21 12:34N 51°31' W 002°42'0 0.0
2015-May-21 11:34N 51°31' W 002°42'0 0.0
2015-May-21 10:34N 51°31' W 002°42'0 0.0
2015-May-21 09:33N 51°31' W 002°42'0 0.0
2015-May-21 08:34N 51°31' W 002°42'0 0.0
2015-May-21 07:33N 51°31' W 002°42'0 0.0
2015-May-21 06:33N 51°31' W 002°42'0 0.0
2015-May-21 05:33N 51°31' W 002°42'0 0.0
2015-May-21 04:34N 51°31' W 002°42'0 0.0
2015-May-21 03:34N 51°31' W 002°42'0 0.0
2015-May-21 02:33N 51°31' W 002°42'0 0.0
2015-May-21 01:33N 51°31' W 002°42'0 0.0
2015-May-21 00:33N 51°31' W 002°42'0 0.0
2015-May-20 23:34N 51°31' W 002°42'0 0.0
2015-May-20 22:34N 51°31' W 002°42'0 0.0
2015-May-20 21:34N 51°31' W 002°42'0 0.0
2015-May-20 20:34N 51°31' W 002°42'0 0.0
2015-May-20 19:33N 51°31' W 002°42'0 0.0
2015-May-20 18:33N 51°31' W 002°42'0 0.0
2015-May-20 17:34N 51°31' W 002°42'0 0.0
2015-May-20 16:34N 51°31' W 002°42'0 0.0
2015-May-20 15:33N 51°31' W 002°42'0 0.0
2015-May-20 14:34N 51°31' W 002°42'0 0.0
2015-May-20 13:33N 51°31' W 002°42'0 0.0
2015-May-20 12:34N 51°31' W 002°42'0 0.0
2015-May-20 11:34N 51°31' W 002°42'0 0.0
2015-May-20 10:34N 51°31' W 002°42'0 0.0
2015-May-20 09:34N 51°31' W 002°42'0 0.0
2015-May-20 08:34N 51°31' W 002°42'0 0.0
2015-May-20 07:33N 51°31' W 002°42'1 0.7
2015-May-20 06:33N 51°31' W 002°43'10 9.7
2015-May-20 05:33N 51°27' W 002°58'93 9.1
2015-May-19 19:17N 50°48' W 005°12'810.8
2015-May-19 18:33N 50°43' W 005°22'1110.9
2015-May-19 17:33N 50°35' W 005°34'  
2015-May-16 13:26N 39°18' W 009°50'8 9.1
2015-May-16 12:33N 39°10' W 009°51'9 9.1
2015-May-16 11:31N 39°01' W 009°51'9 9.4
2015-May-16 10:31N 38°51' W 009°51'9 9.5
2015-May-16 09:33N 38°42' W 009°50'9 9.1
2015-May-16 08:33N 38°33' W 009°47'9 8.6
2015-May-16 07:33N 38°25' W 009°45'8 8.4
2015-May-16 06:33N 38°17' W 009°42'8 8.1
2015-May-16 05:33N 38°09' W 009°40'8 8.1
2015-May-16 04:33N 38°01' W 009°38'8 7.9
2015-May-16 03:33N 37°53' W 009°36'8 8.1
2015-May-16 02:33N 37°46' W 009°33'8 8.5
2015-May-16 01:34N 37°37' W 009°31'9 8.5
2015-May-16 00:32N 37°29' W 009°28'9 8.3
2015-May-15 23:29N 37°20' W 009°26'9 8.1
2015-May-15 22:20N 37°11' W 009°22'7 7.4
2015-May-15 21:23N 37°04' W 009°21'6 7.0
2015-May-15 20:33N 36°59' W 009°20'29 6.7
2015-May-15 16:11N 36°41' W 008°51'7 9.1
2015-May-15 15:28N 36°39' W 008°43'11 9.7
2015-May-15 14:22N 36°37' W 008°30'810.0
2015-May-15 13:31N 36°34' W 008°20'12510.1
2015-May-15 01:09N 35°59' W 005°51'13 8.3
2015-May-14 23:33N 35°58' W 005°35'9 8.8
2015-May-14 22:34N 36°00' W 005°24'8 7.7
2015-May-14 21:34N 35°54' W 005°19'0 0.2
2015-May-14 20:33N 35°54' W 005°19'0 0.4
2015-May-14 19:34N 35°54' W 005°19'2 2.0
2015-May-14 18:33N 35°56' W 005°17'40 9.3
2015-May-14 14:15N 36°09' W 004°31'6411.0
2015-May-14 08:24N 36°18' W 003°12'911.2
2015-May-14 07:34N 36°19' W 003°00'1211.8
2015-May-14 06:34N 36°21' W 002°46'1211.7
2015-May-14 05:34N 36°23' W 002°31'1211.9
2015-May-14 04:34N 36°25' W 002°17'1211.6
2015-May-14 03:33N 36°29' W 002°04'1211.9
2015-May-14 02:33N 36°36' W 001°51'1211.8
2015-May-14 01:33N 36°42' W 001°39'1411.7
2015-May-14 00:24N 36°50' W 001°25'1011.4
2015-May-13 23:33N 36°55' W 001°14'1211.8
2015-May-13 22:33N 37°02' W 001°02'1211.8
2015-May-13 21:33N 37°08' W 000°50'1211.9
2015-May-13 20:34N 37°14' W 000°37'1212.1
2015-May-13 19:33N 37°21' W 000°25'1211.6
2015-May-13 18:34N 37°27' W 000°12'1111.4
2015-May-13 17:33N 37°33' W 000°00'1211.7
2015-May-13 16:33N 37°40' E 000°12'1111.5
2015-May-13 15:34N 37°46' E 000°24'1211.6
2015-May-13 14:33N 37°52' E 000°37'1111.2
2015-May-13 13:33N 37°58' E 000°49'1111.0
2015-May-13 12:33N 38°04' E 001°00'1010.3
2015-May-13 11:33N 38°10' E 001°11'1010.1
2015-May-13 10:33N 38°15' E 001°22'1110.7
2015-May-13 09:33N 38°22' E 001°33'1211.6
2015-May-13 08:33N 38°28' E 001°46'1111.2
2015-May-13 07:33N 38°34' E 001°58'1111.2
2015-May-13 06:33N 38°40' E 002°10'1212.0
2015-May-13 05:33N 38°47' E 002°23'1212.2
2015-May-13 04:33N 38°53' E 002°36'1212.0
2015-May-13 03:33N 38°60' E 002°49'1212.1
2015-May-13 02:33N 39°06' E 003°02'1212.3
2015-May-13 01:34N 39°13' E 003°15'1211.9
2015-May-13 00:33N 39°20' E 003°28'1211.8
2015-May-12 23:33N 39°26' E 003°41'1211.7
2015-May-12 22:33N 39°32' E 003°54'1212.0
2015-May-12 21:33N 39°39' E 004°07'1211.8
2015-May-12 20:33N 39°45' E 004°19'1211.3
2015-May-12 19:30N 39°53' E 004°31'6211.6
2015-May-12 14:08N 40°38' E 005°29'711.7
2015-May-12 13:33N 40°43' E 005°35'1211.8
2015-May-12 12:33N 40°51' E 005°46'1212.0
2015-May-12 11:33N 40°59' E 005°57'1211.9
2015-May-12 10:33N 41°08' E 006°08'1211.8
2015-May-12 09:30N 41°17' E 006°20'1111.6
2015-May-12 08:33N 41°24' E 006°30'1211.7
2015-May-12 07:30N 41°33' E 006°42'1111.8
2015-May-12 06:33N 41°41' E 006°52'1211.9
2015-May-12 05:33N 41°50' E 007°03'1211.5
2015-May-12 04:33N 41°58' E 007°14'1111.3
2015-May-12 03:33N 42°06' E 007°25'  
Track history (hours):
 
Tides and Currents Weather Stations Pressure Air Temp Water Temp Dewpoint Dewpoint Depression Visibility Wind Speed Wind Dir Waves Ship Positions

Citadel

Last reported at 2015-May-22 03:33 UTC. Time now 2015-May-23 01:10 UTC.
Position N 50°37' W 005°27'.

Length 111 m; draft 6.3 m.

Type: Ship. MMSI: 245977000.

Date/timePositionNaut miles runAvg speedWind from/ knotsBaromVisibWave heightAir tempDewpointWater temp
2015-May-22 03:33N 50°37' W 005°27'9713.5
2015-May-21 20:22N 51°23' W 003°12'910.9
2015-May-21 19:33N 51°26' W 002°59'10 9.9
2015-May-21 18:34N 51°30' W 002°44'1 1.3
2015-May-21 17:33N 51°31' W 002°42'0 0.0
2015-May-21 16:33N 51°31' W 002°42'0 0.0
2015-May-21 15:33N 51°31' W 002°42'0 0.0
2015-May-21 14:33N 51°31' W 002°42'0 0.0
2015-May-21 13:33N 51°31' W 002°42'0 0.0
2015-May-21 12:34N 51°31' W 002°42'0 0.0
2015-May-21 11:34N 51°31' W 002°42'0 0.0
2015-May-21 10:34N 51°31' W 002°42'0 0.0
2015-May-21 09:33N 51°31' W 002°42'0 0.0
2015-May-21 08:34N 51°31' W 002°42'0 0.0
2015-May-21 07:33N 51°31' W 002°42'0 0.0
2015-May-21 06:33N 51°31' W 002°42'0 0.0
2015-May-21 05:33N 51°31' W 002°42'0 0.0
2015-May-21 04:34N 51°31' W 002°42'0 0.0
2015-May-21 03:34N 51°31' W 002°42'0 0.0
2015-May-21 02:33N 51°31' W 002°42'0 0.0
2015-May-21 01:33N 51°31' W 002°42'0 0.0
2015-May-21 00:33N 51°31' W 002°42'0 0.0
2015-May-20 23:34N 51°31' W 002°42'0 0.0
2015-May-20 22:34N 51°31' W 002°42'0 0.0
2015-May-20 21:34N 51°31' W 002°42'0 0.0
2015-May-20 20:34N 51°31' W 002°42'0 0.0
2015-May-20 19:33N 51°31' W 002°42'0 0.0
2015-May-20 18:33N 51°31' W 002°42'0 0.0
2015-May-20 17:34N 51°31' W 002°42'0 0.0
2015-May-20 16:34N 51°31' W 002°42'0 0.0
2015-May-20 15:33N 51°31' W 002°42'0 0.0
2015-May-20 14:34N 51°31' W 002°42'0 0.0
2015-May-20 13:33N 51°31' W 002°42'0 0.0
2015-May-20 12:34N 51°31' W 002°42'0 0.0
2015-May-20 11:34N 51°31' W 002°42'0 0.0
2015-May-20 10:34N 51°31' W 002°42'0 0.0
2015-May-20 09:34N 51°31' W 002°42'0 0.0
2015-May-20 08:34N 51°31' W 002°42'0 0.0
2015-May-20 07:33N 51°31' W 002°42'1 0.7
2015-May-20 06:33N 51°31' W 002°43'10 9.7
2015-May-20 05:33N 51°27' W 002°58'93 9.1
2015-May-19 19:17N 50°48' W 005°12'810.8
2015-May-19 18:33N 50°43' W 005°22'1110.9
2015-May-19 17:33N 50°35' W 005°34'  
2015-May-16 13:26N 39°18' W 009°50'8 9.1
2015-May-16 12:33N 39°10' W 009°51'9 9.1
2015-May-16 11:31N 39°01' W 009°51'9 9.4
2015-May-16 10:31N 38°51' W 009°51'9 9.5
2015-May-16 09:33N 38°42' W 009°50'9 9.1
2015-May-16 08:33N 38°33' W 009°47'9 8.6
2015-May-16 07:33N 38°25' W 009°45'8 8.4
2015-May-16 06:33N 38°17' W 009°42'8 8.1
2015-May-16 05:33N 38°09' W 009°40'8 8.1
2015-May-16 04:33N 38°01' W 009°38'8 7.9
2015-May-16 03:33N 37°53' W 009°36'8 8.1
2015-May-16 02:33N 37°46' W 009°33'8 8.5
2015-May-16 01:34N 37°37' W 009°31'9 8.5
2015-May-16 00:32N 37°29' W 009°28'9 8.3
2015-May-15 23:29N 37°20' W 009°26'9 8.1
2015-May-15 22:20N 37°11' W 009°22'7 7.4
2015-May-15 21:23N 37°04' W 009°21'6 7.0
2015-May-15 20:33N 36°59' W 009°20'29 6.7
2015-May-15 16:11N 36°41' W 008°51'7 9.1
2015-May-15 15:28N 36°39' W 008°43'11 9.7
2015-May-15 14:22N 36°37' W 008°30'810.0
2015-May-15 13:31N 36°34' W 008°20'12510.1
2015-May-15 01:09N 35°59' W 005°51'13 8.3
2015-May-14 23:33N 35°58' W 005°35'9 8.8
2015-May-14 22:34N 36°00' W 005°24'8 7.7
2015-May-14 21:34N 35°54' W 005°19'0 0.2
2015-May-14 20:33N 35°54' W 005°19'0 0.4
2015-May-14 19:34N 35°54' W 005°19'2 2.0
2015-May-14 18:33N 35°56' W 005°17'40 9.3
2015-May-14 14:15N 36°09' W 004°31'6411.0
2015-May-14 08:24N 36°18' W 003°12'911.2
2015-May-14 07:34N 36°19' W 003°00'1211.8
2015-May-14 06:34N 36°21' W 002°46'1211.7
2015-May-14 05:34N 36°23' W 002°31'1211.9
2015-May-14 04:34N 36°25' W 002°17'1211.6
2015-May-14 03:33N 36°29' W 002°04'1211.9
2015-May-14 02:33N 36°36' W 001°51'1211.8
2015-May-14 01:33N 36°42' W 001°39'1411.7
2015-May-14 00:24N 36°50' W 001°25'1011.4
2015-May-13 23:33N 36°55' W 001°14'1211.8
2015-May-13 22:33N 37°02' W 001°02'1211.8
2015-May-13 21:33N 37°08' W 000°50'1211.9
2015-May-13 20:34N 37°14' W 000°37'1212.1
2015-May-13 19:33N 37°21' W 000°25'1211.6
2015-May-13 18:34N 37°27' W 000°12'1111.4
2015-May-13 17:33N 37°33' W 000°00'1211.7
2015-May-13 16:33N 37°40' E 000°12'1111.5
2015-May-13 15:34N 37°46' E 000°24'1211.6
2015-May-13 14:33N 37°52' E 000°37'1111.2
2015-May-13 13:33N 37°58' E 000°49'1111.0
2015-May-13 12:33N 38°04' E 001°00'1010.3
2015-May-13 11:33N 38°10' E 001°11'1010.1
2015-May-13 10:33N 38°15' E 001°22'1110.7
2015-May-13 09:33N 38°22' E 001°33'1211.6
2015-May-13 08:33N 38°28' E 001°46'1111.2
2015-May-13 07:33N 38°34' E 001°58'1111.2
2015-May-13 06:33N 38°40' E 002°10'1212.0
2015-May-13 05:33N 38°47' E 002°23'1212.2
2015-May-13 04:33N 38°53' E 002°36'1212.0
2015-May-13 03:33N 38°60' E 002°49'1212.1
2015-May-13 02:33N 39°06' E 003°02'1212.3
2015-May-13 01:34N 39°13' E 003°15'1211.9
2015-May-13 00:33N 39°20' E 003°28'1211.8
2015-May-12 23:33N 39°26' E 003°41'1211.7
2015-May-12 22:33N 39°32' E 003°54'1212.0
2015-May-12 21:33N 39°39' E 004°07'1211.8
2015-May-12 20:33N 39°45' E 004°19'1211.3
2015-May-12 19:30N 39°53' E 004°31'6211.6
2015-May-12 14:08N 40°38' E 005°29'711.7
2015-May-12 13:33N 40°43' E 005°35'1211.8
2015-May-12 12:33N 40°51' E 005°46'1212.0
2015-May-12 11:33N 40°59' E 005°57'1211.9
2015-May-12 10:33N 41°08' E 006°08'1211.8
2015-May-12 09:30N 41°17' E 006°20'1111.6
2015-May-12 08:33N 41°24' E 006°30'1211.7
2015-May-12 07:30N 41°33' E 006°42'1111.8
2015-May-12 06:33N 41°41' E 006°52'1211.9
2015-May-12 05:33N 41°50' E 007°03'1211.5
2015-May-12 04:33N 41°58' E 007°14'1111.3
2015-May-12 03:33N 42°06' E 007°25'  

Dump ship's entire track history